Ryer Island, California
Current Conditions -  °F | °C
As of 7:58 AM on Sunday 23 Nov 2014 (Local Time) from KSUU Reporting Station
Clear Clear  
Wind Chill: 51°   Ceiling: Unl
Heat Index: 51°   Visibility: 10mi
Dew Point: 48°   Wind: 5mph
Humidity: 90%   Direction: 300°WNW
Pressure: 30.29"   Gusts: NA
Location:  38.2298°N, 121.579°W
Report Text: KSUU 231558Z AUTO 30004KT 10SM CLR 10/09 A3029 RMK AO2 SLP264 T01030087 $
Loading
Personal Weather Stations






























Interactive Weather Map New forecast layout! Learn more

10-Day Weather Forecast

Advertisements
Track Severe Weather on mobile